sensor_id;sensor_type;location;lat;lon;timestamp;pressure;altitude;pressure_sealevel;temperature;humidity
21706;BME280;11014;53.076;18.208;2023-01-27T00:01:23;101785.50;;;5.94;63.79
21706;BME280;11014;53.076;18.208;2023-01-27T00:03:54;101791.53;;;5.88;63.75
21706;BME280;11014;53.076;18.208;2023-01-27T00:06:35;101801.84;;;5.91;63.89
21706;BME280;11014;53.076;18.208;2023-01-27T00:09:03;101793.50;;;5.94;63.84
21706;BME280;11014;53.076;18.208;2023-01-27T00:11:32;101793.31;;;5.96;63.44
21706;BME280;11014;53.076;18.208;2023-01-27T00:14:19;101792.66;;;5.94;63.54
21706;BME280;11014;53.076;18.208;2023-01-27T00:16:51;101787.84;;;5.89;63.76
21706;BME280;11014;53.076;18.208;2023-01-27T00:19:25;101789.84;;;5.87;63.58
21706;BME280;11014;53.076;18.208;2023-01-27T00:22:08;101789.84;;;5.87;63.57
21706;BME280;11014;53.076;18.208;2023-01-27T00:25:02;101789.03;;;5.87;63.41
21706;BME280;11014;53.076;18.208;2023-01-27T00:27:34;101789.03;;;5.87;63.65
21706;BME280;11014;53.076;18.208;2023-01-27T00:30:08;101789.84;;;5.87;63.60
21706;BME280;11014;53.076;18.208;2023-01-27T00:32:39;101798.34;;;5.83;63.76
21706;BME280;11014;53.076;18.208;2023-01-27T00:35:35;101805.50;;;5.82;63.56
21706;BME280;11014;53.076;18.208;2023-01-27T00:38:04;101810.19;;;5.80;63.56
21706;BME280;11014;53.076;18.208;2023-01-27T00:40:41;101810.00;;;5.74;63.56
21706;BME280;11014;53.076;18.208;2023-01-27T00:43:42;101801.34;;;5.72;63.80
21706;BME280;11014;53.076;18.208;2023-01-27T00:46:12;101801.84;;;5.75;63.63
21706;BME280;11014;53.076;18.208;2023-01-27T00:48:46;101807.19;;;5.75;63.70
21706;BME280;11014;53.076;18.208;2023-01-27T00:51:14;101805.19;;;5.77;63.80
21706;BME280;11014;53.076;18.208;2023-01-27T00:53:44;101803.16;;;5.79;63.59
21706;BME280;11014;53.076;18.208;2023-01-27T00:56:13;101805.03;;;5.79;63.61
21706;BME280;11014;53.076;18.208;2023-01-27T00:58:42;101803.53;;;5.76;63.55
21706;BME280;11014;53.076;18.208;2023-01-27T01:01:13;101805.50;;;5.74;63.83
21706;BME280;11014;53.076;18.208;2023-01-27T01:03:43;101806.84;;;5.78;63.77
21706;BME280;11014;53.076;18.208;2023-01-27T01:06:15;101811.53;;;5.76;63.90
21706;BME280;11014;53.076;18.208;2023-01-27T01:08:44;101806.66;;;5.80;63.78
21706;BME280;11014;53.076;18.208;2023-01-27T01:11:14;101806.34;;;5.83;63.71
21706;BME280;11014;53.076;18.208;2023-01-27T01:13:44;101814.88;;;5.86;63.69
21706;BME280;11014;53.076;18.208;2023-01-27T01:16:24;101809.84;;;5.83;63.74
21706;BME280;11014;53.076;18.208;2023-01-27T01:18:53;101817.53;;;5.86;63.56
21706;BME280;11014;53.076;18.208;2023-01-27T01:21:22;101809.84;;;5.83;63.55
21706;BME280;11014;53.076;18.208;2023-01-27T01:23:50;101815.16;;;5.83;63.57
21706;BME280;11014;53.076;18.208;2023-01-27T01:26:19;101810.19;;;5.80;63.55
21706;BME280;11014;53.076;18.208;2023-01-27T01:28:47;101809.34;;;5.80;63.75
21706;BME280;11014;53.076;18.208;2023-01-27T01:31:18;101810.50;;;5.77;63.77
21706;BME280;11014;53.076;18.208;2023-01-27T01:33:47;101810.81;;;5.82;64.00
21706;BME280;11014;53.076;18.208;2023-01-27T01:36:18;101814.19;;;5.84;63.72
21706;BME280;11014;53.076;18.208;2023-01-27T01:38:47;101813.84;;;5.87;63.71
21706;BME280;11014;53.076;18.208;2023-01-27T01:41:19;101814.53;;;5.89;63.45
21706;BME280;11014;53.076;18.208;2023-01-27T01:43:49;101805.50;;;5.90;63.67
21706;BME280;11014;53.076;18.208;2023-01-27T01:46:18;101810.84;;;5.90;63.50
21706;BME280;11014;53.076;18.208;2023-01-27T01:48:51;101809.19;;;5.89;63.78
21706;BME280;11014;53.076;18.208;2023-01-27T01:51:31;101813.19;;;5.85;63.84
21706;BME280;11014;53.076;18.208;2023-01-27T01:54:08;101801.19;;;5.81;63.98
21706;BME280;11014;53.076;18.208;2023-01-27T01:56:45;101811.84;;;5.81;63.99
21706;BME280;11014;53.076;18.208;2023-01-27T01:59:22;101814.88;;;5.86;63.94
21706;BME280;11014;53.076;18.208;2023-01-27T02:01:55;101813.34;;;5.92;64.04
21706;BME280;11014;53.076;18.208;2023-01-27T02:04:31;101812.66;;;5.98;63.73
21706;BME280;11014;53.076;18.208;2023-01-27T02:07:07;101810.16;;;5.96;63.82
21706;BME280;11014;53.076;18.208;2023-01-27T02:09:39;101811.84;;;5.97;63.90
21706;BME280;11014;53.076;18.208;2023-01-27T02:12:08;101810.31;;;6.03;63.79
21706;BME280;11014;53.076;18.208;2023-01-27T02:14:38;101813.44;;;6.07;63.86
21706;BME280;11014;53.076;18.208;2023-01-27T02:17:09;101812.94;;;6.11;63.89
21706;BME280;11014;53.076;18.208;2023-01-27T02:19:56;101807.75;;;6.18;63.56
21706;BME280;11014;53.076;18.208;2023-01-27T02:23:17;101817.41;;;6.19;63.45
21706;BME280;11014;53.076;18.208;2023-01-27T02:25:38;101816.44;;;6.20;63.53
21706;BME280;11014;53.076;18.208;2023-01-27T02:28:07;101816.78;;;6.17;63.67
21706;BME280;11014;53.076;18.208;2023-01-27T02:30:36;101811.91;;;6.20;63.66
21706;BME280;11014;53.076;18.208;2023-01-27T02:33:12;101811.09;;;6.20;63.61
21706;BME280;11014;53.076;18.208;2023-01-27T02:35:57;101810.75;;;6.23;63.95
21706;BME280;11014;53.076;18.208;2023-01-27T02:38:39;101820.06;;;6.27;63.90
21706;BME280;11014;53.076;18.208;2023-01-27T02:41:14;101828.41;;;6.24;63.85
21706;BME280;11014;53.076;18.208;2023-01-27T02:43:50;101818.06;;;6.21;63.89
21706;BME280;11014;53.076;18.208;2023-01-27T02:46:20;101820.59;;;6.22;63.86
21706;BME280;11014;53.076;18.208;2023-01-27T02:48:49;101824.25;;;6.21;64.15
21706;BME280;11014;53.076;18.208;2023-01-27T02:51:18;101830.09;;;6.17;64.35
21706;BME280;11014;53.076;18.208;2023-01-27T02:53:47;101827.78;;;6.14;64.44
21706;BME280;11014;53.076;18.208;2023-01-27T02:56:16;101819.78;;;6.14;64.46
21706;BME280;11014;53.076;18.208;2023-01-27T02:58:58;101818.41;;;6.18;64.51
21706;BME280;11014;53.076;18.208;2023-01-27T03:01:33;101820.59;;;6.22;64.67
21706;BME280;11014;53.076;18.208;2023-01-27T03:04:01;101817.72;;;6.24;64.79
21706;BME280;11014;53.076;18.208;2023-01-27T03:06:31;101825.88;;;6.30;64.75
21706;BME280;11014;53.076;18.208;2023-01-27T03:08:59;101829.38;;;6.31;64.57
21706;BME280;11014;53.076;18.208;2023-01-27T03:11:28;101827.41;;;6.25;64.73
21706;BME280;11014;53.076;18.208;2023-01-27T03:14:15;101832.91;;;6.23;64.71
21706;BME280;11014;53.076;18.208;2023-01-27T03:16:47;101833.75;;;6.24;64.84
21706;BME280;11014;53.076;18.208;2023-01-27T03:19:34;101827.91;;;6.20;65.07
21706;BME280;11014;53.076;18.208;2023-01-27T03:22:04;101836.09;;;6.19;65.00
21706;BME280;11014;53.076;18.208;2023-01-27T03:24:34;101830.09;;;6.17;65.04
21706;BME280;11014;53.076;18.208;2023-01-27T03:27:06;101840.09;;;6.23;65.26
21706;BME280;11014;53.076;18.208;2023-01-27T03:29:55;101835.06;;;6.28;65.15
21706;BME280;11014;53.076;18.208;2023-01-27T03:32:26;101835.53;;;6.31;65.12
21706;BME280;11014;53.076;18.208;2023-01-27T03:35:15;101832.06;;;6.31;65.04
21706;BME280;11014;53.076;18.208;2023-01-27T03:37:48;101832.09;;;6.23;65.17
21706;BME280;11014;53.076;18.208;2023-01-27T03:40:35;101833.13;;;6.14;65.43
21706;BME280;11014;53.076;18.208;2023-01-27T03:43:25;101828.97;;;6.11;65.42
21706;BME280;11014;53.076;18.208;2023-01-27T03:46:12;101831.78;;;6.10;65.54
21706;BME280;11014;53.076;18.208;2023-01-27T03:48:51;101828.81;;;6.05;65.80
21706;BME280;11014;53.076;18.208;2023-01-27T03:51:22;101828.81;;;6.05;65.64
21706;BME280;11014;53.076;18.208;2023-01-27T03:53:52;101830.47;;;6.06;65.83
21706;BME280;11014;53.076;18.208;2023-01-27T03:56:24;101830.13;;;6.09;65.77
21706;BME280;11014;53.076;18.208;2023-01-27T03:58:54;101841.16;;;6.06;65.76
21706;BME280;11014;53.076;18.208;2023-01-27T04:01:23;101833.50;;;6.03;65.90
21706;BME280;11014;53.076;18.208;2023-01-27T04:03:52;101833.16;;;5.97;66.05
21706;BME280;11014;53.076;18.208;2023-01-27T04:06:40;101836.19;;;5.94;66.04
21706;BME280;11014;53.076;18.208;2023-01-27T04:09:32;101831.84;;;5.93;66.21
21706;BME280;11014;53.076;18.208;2023-01-27T04:12:03;101840.16;;;5.90;66.32
21706;BME280;11014;53.076;18.208;2023-01-27T04:14:37;101843.00;;;5.97;66.59
21706;BME280;11014;53.076;18.208;2023-01-27T04:17:15;101849.16;;;5.97;66.34
21706;BME280;11014;53.076;18.208;2023-01-27T04:19:45;101848.84;;;5.92;66.48
21706;BME280;11014;53.076;18.208;2023-01-27T04:22:15;101853.50;;;5.90;66.62
21706;BME280;11014;53.076;18.208;2023-01-27T04:24:46;101848.66;;;5.94;66.90
21706;BME280;11014;53.076;18.208;2023-01-27T04:27:15;101853.34;;;6.00;66.97
21706;BME280;11014;53.076;18.208;2023-01-27T04:29:44;101862.81;;;6.03;66.66
21706;BME280;11014;53.076;18.208;2023-01-27T04:32:12;101865.66;;;6.01;66.55
21706;BME280;11014;53.076;18.208;2023-01-27T04:34:41;101863.66;;;6.03;66.87
21706;BME280;11014;53.076;18.208;2023-01-27T04:37:10;101868.16;;;6.03;66.54
21706;BME280;11014;53.076;18.208;2023-01-27T04:39:38;101868.84;;;5.96;66.88
21706;BME280;11014;53.076;18.208;2023-01-27T04:42:08;101867.53;;;5.92;66.98
21706;BME280;11014;53.076;18.208;2023-01-27T04:44:37;101870.00;;;5.94;66.87
21706;BME280;11014;53.076;18.208;2023-01-27T04:47:05;101878.19;;;5.92;66.98
21706;BME280;11014;53.076;18.208;2023-01-27T04:49:34;101885.50;;;5.90;66.93
21706;BME280;11014;53.076;18.208;2023-01-27T04:52:02;101883.53;;;5.92;66.91
21706;BME280;11014;53.076;18.208;2023-01-27T04:54:31;101879.84;;;5.93;67.12
21706;BME280;11014;53.076;18.208;2023-01-27T04:57:00;101892.53;;;5.91;67.08
21706;BME280;11014;53.076;18.208;2023-01-27T04:59:31;101889.84;;;5.91;67.03
21706;BME280;11014;53.076;18.208;2023-01-27T05:01:59;101883.88;;;5.89;67.32
21706;BME280;11014;53.076;18.208;2023-01-27T05:04:33;101885.69;;;5.89;67.46
21706;BME280;11014;53.076;18.208;2023-01-27T05:07:24;101888.16;;;5.90;66.99
21706;BME280;11014;53.076;18.208;2023-01-27T05:10:00;101896.19;;;5.90;67.20
21706;BME280;11014;53.076;18.208;2023-01-27T05:12:34;101896.50;;;5.87;67.25
21706;BME280;11014;53.076;18.208;2023-01-27T05:15:11;101891.19;;;5.87;67.23
21706;BME280;11014;53.076;18.208;2023-01-27T05:17:48;101900.84;;;5.88;67.57
21706;BME280;11014;53.076;18.208;2023-01-27T05:20:37;101896.19;;;5.90;67.23
21706;BME280;11014;53.076;18.208;2023-01-27T05:24:36;101908.19;;;5.94;67.12
21706;BME280;11014;53.076;18.208;2023-01-27T05:27:08;101905.00;;;5.91;67.13
21706;BME280;11014;53.076;18.208;2023-01-27T05:29:36;101904.69;;;5.86;67.20
21706;BME280;11014;53.076;18.208;2023-01-27T05:32:05;101894.88;;;5.86;67.55
21706;BME280;11014;53.076;18.208;2023-01-27T05:34:33;101901.50;;;5.90;67.69
21706;BME280;11014;53.076;18.208;2023-01-27T05:37:05;101901.16;;;5.93;67.31
21706;BME280;11014;53.076;18.208;2023-01-27T05:39:33;101903.84;;;5.93;67.39
21706;BME280;11014;53.076;18.208;2023-01-27T05:42:36;101908.19;;;5.94;67.18
21706;BME280;11014;53.076;18.208;2023-01-27T05:45:05;101906.50;;;5.93;67.48
21706;BME280;11014;53.076;18.208;2023-01-27T05:47:36;101910.00;;;5.94;67.56
21706;BME280;11014;53.076;18.208;2023-01-27T05:50:07;101908.19;;;5.94;67.60
21706;BME280;11014;53.076;18.208;2023-01-27T05:52:41;101918.50;;;5.97;67.37
21706;BME280;11014;53.076;18.208;2023-01-27T05:55:13;101916.84;;;5.96;67.23
21706;BME280;11014;53.076;18.208;2023-01-27T05:57:45;101920.53;;;5.95;67.12
21706;BME280;11014;53.076;18.208;2023-01-27T06:00:19;101913.19;;;5.97;67.13
21706;BME280;11014;53.076;18.208;2023-01-27T06:02:48;101916.00;;;5.96;67.02
21706;BME280;11014;53.076;18.208;2023-01-27T06:05:24;101915.84;;;5.97;67.25
21706;BME280;11014;53.076;18.208;2023-01-27T06:08:10;101920.00;;;6.00;67.24
21706;BME280;11014;53.076;18.208;2023-01-27T06:10:39;101928.53;;;6.04;66.91
21706;BME280;11014;53.076;18.208;2023-01-27T06:13:07;101930.81;;;6.07;66.84
21706;BME280;11014;53.076;18.208;2023-01-27T06:15:55;101934.31;;;6.07;66.82
21706;BME280;11014;53.076;18.208;2023-01-27T06:18:51;101931.50;;;6.09;66.93
21706;BME280;11014;53.076;18.208;2023-01-27T06:21:22;101937.50;;;6.03;66.79
21706;BME280;11014;53.076;18.208;2023-01-27T06:23:50;101932.50;;;6.00;66.56
21706;BME280;11014;53.076;18.208;2023-01-27T06:26:22;101935.34;;;6.14;66.56
21706;BME280;11014;53.076;18.208;2023-01-27T06:28:50;101931.66;;;5.99;66.30
21706;BME280;11014;53.076;18.208;2023-01-27T06:31:20;101932.34;;;5.93;66.39
21706;BME280;11014;53.076;18.208;2023-01-27T06:33:55;101939.88;;;5.89;66.62
21706;BME280;11014;53.076;18.208;2023-01-27T06:36:24;101942.50;;;5.81;66.57
21706;BME280;11014;53.076;18.208;2023-01-27T06:38:58;101939.50;;;5.76;66.46
21706;BME280;11014;53.076;18.208;2023-01-27T06:41:29;101950.16;;;5.68;66.34
21706;BME280;11014;53.076;18.208;2023-01-27T06:44:23;101952.81;;;5.60;66.03
21706;BME280;11014;53.076;18.208;2023-01-27T06:46:51;101945.97;;;5.58;66.36
21706;BME280;11014;53.076;18.208;2023-01-27T06:49:20;101955.84;;;5.57;66.47
21706;BME280;11014;53.076;18.208;2023-01-27T06:51:51;101961.31;;;5.56;66.16
21706;BME280;11014;53.076;18.208;2023-01-27T06:54:19;101966.13;;;5.52;66.17
21706;BME280;11014;53.076;18.208;2023-01-27T06:56:48;101968.78;;;5.52;66.06
21706;BME280;11014;53.076;18.208;2023-01-27T06:59:16;101967.16;;;5.51;65.86
21706;BME280;11014;53.076;18.208;2023-01-27T07:01:45;101970.66;;;5.52;65.75
21706;BME280;11014;53.076;18.208;2023-01-27T07:04:13;101974.47;;;5.49;65.73
21706;BME280;11014;53.076;18.208;2023-01-27T07:06:46;101977.16;;;5.49;65.32
21706;BME280;11014;53.076;18.208;2023-01-27T07:09:17;101974.63;;;5.48;65.36
21706;BME280;11014;53.076;18.208;2023-01-27T07:11:56;101982.47;;;5.49;65.29
21706;BME280;11014;53.076;18.208;2023-01-27T07:14:27;101992.97;;;5.51;64.96
21706;BME280;11014;53.076;18.208;2023-01-27T07:17:01;101989.44;;;5.50;65.03
21706;BME280;11014;53.076;18.208;2023-01-27T07:19:38;101986.13;;;5.48;64.78
21706;BME280;11014;53.076;18.208;2023-01-27T07:22:11;101995.09;;;5.47;64.80
21706;BME280;11014;53.076;18.208;2023-01-27T07:24:40;101999.59;;;5.47;64.46
21706;BME280;11014;53.076;18.208;2023-01-27T07:27:09;101997.78;;;5.47;64.51
21706;BME280;11014;53.076;18.208;2023-01-27T07:29:41;101999.28;;;5.50;64.63
21706;BME280;11014;53.076;18.208;2023-01-27T07:32:16;102000.13;;;5.50;64.31
21706;BME280;11014;53.076;18.208;2023-01-27T07:34:58;102014.47;;;5.49;64.34
21706;BME280;11014;53.076;18.208;2023-01-27T07:37:29;102009.78;;;5.51;64.30
21706;BME280;11014;53.076;18.208;2023-01-27T07:40:18;102014.09;;;5.52;64.38
21706;BME280;11014;53.076;18.208;2023-01-27T07:42:50;102017.47;;;5.54;64.46
21706;BME280;11014;53.076;18.208;2023-01-27T07:45:20;102010.97;;;5.57;64.44
21706;BME280;11014;53.076;18.208;2023-01-27T07:47:48;102014.13;;;5.60;64.34
21706;BME280;11014;53.076;18.208;2023-01-27T07:50:17;102008.78;;;5.60;64.24
21706;BME280;11014;53.076;18.208;2023-01-27T07:52:48;102014.47;;;5.65;64.30
21706;BME280;11014;53.076;18.208;2023-01-27T07:55:39;102010.81;;;5.66;64.39
21706;BME280;11014;53.076;18.208;2023-01-27T07:58:10;102023.47;;;5.64;64.38
21706;BME280;11014;53.076;18.208;2023-01-27T08:00:39;102025.16;;;5.65;64.31
21706;BME280;11014;53.076;18.208;2023-01-27T08:03:34;102015.66;;;5.71;64.17
21706;BME280;11014;53.076;18.208;2023-01-27T08:09:00;102024.47;;;5.79;63.96
21706;BME280;11014;53.076;18.208;2023-01-27T08:11:33;102024.47;;;5.71;63.76
21706;BME280;11014;53.076;18.208;2023-01-27T08:14:07;102027.81;;;5.73;64.15
21706;BME280;11014;53.076;18.208;2023-01-27T08:16:35;102041.16;;;5.81;64.32
21706;BME280;11014;53.076;18.208;2023-01-27T08:19:09;102038.53;;;5.89;64.12
21706;BME280;11014;53.076;18.208;2023-01-27T08:21:37;102037.19;;;5.93;64.09
21706;BME280;11014;53.076;18.208;2023-01-27T08:24:31;102038.69;;;6.04;64.16
21706;BME280;11014;53.076;18.208;2023-01-27T08:27:02;102036.88;;;6.05;64.05
21706;BME280;11014;53.076;18.208;2023-01-27T08:29:31;102040.56;;;6.04;64.10
21706;BME280;11014;53.076;18.208;2023-01-27T08:32:00;102042.84;;;6.07;64.00
21706;BME280;11014;53.076;18.208;2023-01-27T08:34:35;102043.88;;;6.14;63.88
21706;BME280;11014;53.076;18.208;2023-01-27T08:37:05;102042.72;;;6.16;63.93
21706;BME280;11014;53.076;18.208;2023-01-27T08:39:34;102053.03;;;6.19;63.80
21706;BME280;11014;53.076;18.208;2023-01-27T08:42:03;102059.38;;;6.26;63.88
21706;BME280;11014;53.076;18.208;2023-01-27T08:44:32;102068.53;;;6.32;63.64
21706;BME280;11014;53.076;18.208;2023-01-27T08:47:00;102067.56;;;6.33;63.47
21706;BME280;11014;53.076;18.208;2023-01-27T08:49:40;102067.56;;;6.33;63.55
21706;BME280;11014;53.076;18.208;2023-01-27T08:52:08;102068.22;;;6.35;63.39
21706;BME280;11014;53.076;18.208;2023-01-27T08:54:37;102074.91;;;6.39;63.40
21706;BME280;11014;53.076;18.208;2023-01-27T08:57:05;102080.06;;;6.40;63.14
21706;BME280;11014;53.076;18.208;2023-01-27T08:59:34;102079.22;;;6.40;62.94
21706;BME280;11014;53.076;18.208;2023-01-27T09:02:05;102075.56;;;6.41;62.97
21706;BME280;11014;53.076;18.208;2023-01-27T09:04:35;102071.91;;;6.42;63.14
21706;BME280;11014;53.076;18.208;2023-01-27T09:07:10;102079.91;;;6.42;62.88
21706;BME280;11014;53.076;18.208;2023-01-27T09:09:41;102078.72;;;6.36;62.89
21706;BME280;11014;53.076;18.208;2023-01-27T09:12:14;102090.91;;;6.39;62.94
21706;BME280;11014;53.076;18.208;2023-01-27T09:14:48;102091.25;;;6.44;62.85
21706;BME280;11014;53.076;18.208;2023-01-27T09:17:24;102087.53;;;6.45;62.99
21706;BME280;11014;53.076;18.208;2023-01-27T09:19:52;102090.91;;;6.47;63.08
21706;BME280;11014;53.076;18.208;2023-01-27T09:22:46;102091.56;;;6.57;62.88
21706;BME280;11014;53.076;18.208;2023-01-27T09:29:04;102096.56;;;6.60;62.70
21706;BME280;11014;53.076;18.208;2023-01-27T09:31:34;102096.91;;;6.57;62.81
21706;BME280;11014;53.076;18.208;2023-01-27T09:34:02;102091.56;;;6.49;62.60
21706;BME280;11014;53.076;18.208;2023-01-27T09:36:52;102085.25;;;6.42;62.61
21706;BME280;11014;53.076;18.208;2023-01-27T09:39:22;102090.22;;;6.37;62.73
21706;BME280;11014;53.076;18.208;2023-01-27T09:57:14;102095.53;;;6.53;62.59
21706;BME280;11014;53.076;18.208;2023-01-27T10:00:23;102102.03;;;6.67;62.41
21706;BME280;11014;53.076;18.208;2023-01-27T10:05:55;102098.03;;;6.71;62.48
21706;BME280;11014;53.076;18.208;2023-01-27T10:17:04;102101.19;;;6.82;62.38
21706;BME280;11014;53.076;18.208;2023-01-27T10:22:59;102100.84;;;6.93;61.59
21706;BME280;11014;53.076;18.208;2023-01-27T10:28:12;102105.88;;;6.88;62.07
21706;BME280;11014;53.076;18.208;2023-01-27T10:31:01;102107.19;;;6.84;62.57
21706;BME280;11014;53.076;18.208;2023-01-27T10:33:53;102110.53;;;6.78;62.84
21706;BME280;11014;53.076;18.208;2023-01-27T10:36:54;102113.88;;;6.72;63.07
21706;BME280;11014;53.076;18.208;2023-01-27T10:39:36;102101.91;;;6.60;63.02
21706;BME280;11014;53.076;18.208;2023-01-27T11:03:34;102107.53;;;6.89;63.15
21706;BME280;11014;53.076;18.208;2023-01-27T11:06:27;102106.53;;;6.90;63.68
21706;BME280;11014;53.076;18.208;2023-01-27T11:09:25;102112.84;;;6.97;63.67
21706;BME280;11014;53.076;18.208;2023-01-27T11:12:11;102098.31;;;7.00;63.47
21706;BME280;11014;53.076;18.208;2023-01-27T11:14:45;102111.97;;;7.05;63.66
21706;BME280;11014;53.076;18.208;2023-01-27T11:21:02;102118.16;;;7.05;63.50
21706;BME280;11014;53.076;18.208;2023-01-27T11:24:27;102115.34;;;7.07;63.32
21706;BME280;11014;53.076;18.208;2023-01-27T11:27:45;102114.31;;;7.08;63.68
21706;BME280;11014;53.076;18.208;2023-01-27T11:30:42;102109.81;;;7.08;63.59
21706;BME280;11014;53.076;18.208;2023-01-27T11:37:17;102102.47;;;7.02;63.66
21706;BME280;11014;53.076;18.208;2023-01-27T11:43:08;102115.50;;;6.97;63.62
21706;BME280;11014;53.076;18.208;2023-01-27T11:45:42;102125.03;;;7.00;63.86
21706;BME280;11014;53.076;18.208;2023-01-27T11:48:15;102120.38;;;7.02;64.16
21706;BME280;11014;53.076;18.208;2023-01-27T11:50:57;102114.00;;;7.03;64.33
21706;BME280;11014;53.076;18.208;2023-01-27T11:53:29;102112.47;;;7.08;64.14
21706;BME280;11014;53.076;18.208;2023-01-27T11:56:17;102113.47;;;7.15;64.18
21706;BME280;11014;53.076;18.208;2023-01-27T11:59:04;102118.81;;;7.15;64.27
21706;BME280;11014;53.076;18.208;2023-01-27T12:07:34;102119.59;;;7.24;64.22
21706;BME280;11014;53.076;18.208;2023-01-27T12:10:28;102116.44;;;7.29;64.27
21706;BME280;11014;53.076;18.208;2023-01-27T12:13:23;102115.78;;;7.27;64.21
21706;BME280;11014;53.076;18.208;2023-01-27T12:15:58;102109.44;;;7.20;64.10
21706;BME280;11014;53.076;18.208;2023-01-27T12:18:32;102113.09;;;7.18;64.16
21706;BME280;11014;53.076;18.208;2023-01-27T12:21:07;102121.81;;;7.21;64.33
21706;BME280;11014;53.076;18.208;2023-01-27T12:23:51;102110.44;;;7.27;64.14
21706;BME280;11014;53.076;18.208;2023-01-27T12:26:37;102110.78;;;7.24;64.16
21706;BME280;11014;53.076;18.208;2023-01-27T12:29:19;102111.97;;;7.21;64.15
21706;BME280;11014;53.076;18.208;2023-01-27T12:31:54;102103.13;;;7.12;63.81
21706;BME280;11014;53.076;18.208;2023-01-27T12:34:31;102104.47;;;7.08;64.23
21706;BME280;11014;53.076;18.208;2023-01-27T12:37:30;102097.13;;;7.02;64.33
21706;BME280;11014;53.076;18.208;2023-01-27T12:40:03;102105.81;;;7.04;63.98
21706;BME280;11014;53.076;18.208;2023-01-27T12:42:43;102105.81;;;7.04;63.99
21706;BME280;11014;53.076;18.208;2023-01-27T12:45:32;102098.13;;;7.09;64.10
21706;BME280;11014;53.076;18.208;2023-01-27T12:51:05;102113.34;;;7.01;63.97
21706;BME280;11014;53.076;18.208;2023-01-27T12:53:34;102106.16;;;7.01;63.72
21706;BME280;11014;53.076;18.208;2023-01-27T12:56:12;102111.84;;;6.98;63.91
21706;BME280;11014;53.076;18.208;2023-01-27T12:59:29;102111.53;;;6.93;63.94
21706;BME280;11014;53.076;18.208;2023-01-27T13:02:18;102113.53;;;6.99;64.00
21706;BME280;11014;53.076;18.208;2023-01-27T13:05:04;102111.69;;;6.92;64.09
21706;BME280;11014;53.076;18.208;2023-01-27T13:07:54;102114.53;;;6.90;64.16
21706;BME280;11014;53.076;18.208;2023-01-27T13:10:25;102112.84;;;6.89;64.11
21706;BME280;11014;53.076;18.208;2023-01-27T13:12:57;102121.91;;;6.88;64.18
21706;BME280;11014;53.076;18.208;2023-01-27T13:15:28;102123.53;;;6.89;64.09
21706;BME280;11014;53.076;18.208;2023-01-27T13:18:12;102127.38;;;6.95;64.31
21706;BME280;11014;53.076;18.208;2023-01-27T13:20:54;102125.56;;;6.87;64.02
21706;BME280;11014;53.076;18.208;2023-01-27T13:23:29;102137.09;;;6.88;64.16
21706;BME280;11014;53.076;18.208;2023-01-27T13:30:18;102136.91;;;6.89;64.23
21706;BME280;11014;53.076;18.208;2023-01-27T13:32:37;102134.44;;;6.80;64.17
21706;BME280;11014;53.076;18.208;2023-01-27T13:35:33;102138.75;;;6.81;63.90
21706;BME280;11014;53.076;18.208;2023-01-27T13:41:23;102138.75;;;6.73;63.98
21706;BME280;11014;53.076;18.208;2023-01-27T13:44:04;102140.25;;;6.75;64.28
21706;BME280;11014;53.076;18.208;2023-01-27T13:46:36;102138.75;;;6.73;64.25
21706;BME280;11014;53.076;18.208;2023-01-27T13:49:29;102147.94;;;6.70;64.41
21706;BME280;11014;53.076;18.208;2023-01-27T13:52:06;102145.59;;;6.67;64.52
21706;BME280;11014;53.076;18.208;2023-01-27T14:03:42;102151.47;;;6.54;64.28
21706;BME280;11014;53.076;18.208;2023-01-27T14:09:40;102147.28;;;6.52;64.55
21706;BME280;11014;53.076;18.208;2023-01-27T14:15:41;102166.81;;;6.44;63.97
21706;BME280;11014;53.076;18.208;2023-01-27T14:18:23;102166.50;;;6.47;64.25
21706;BME280;11014;53.076;18.208;2023-01-27T14:24:01;102160.78;;;6.42;64.02
21706;BME280;11014;53.076;18.208;2023-01-27T14:27:43;102165.97;;;6.52;63.78
21706;BME280;11014;53.076;18.208;2023-01-27T14:30:16;102163.13;;;6.45;63.50
21706;BME280;11014;53.076;18.208;2023-01-27T14:35:45;102166.97;;;6.43;63.41
21706;BME280;11014;53.076;18.208;2023-01-27T14:38:27;102172.97;;;6.45;63.48
21706;BME280;11014;53.076;18.208;2023-01-27T14:41:26;102171.66;;;6.41;63.10
21706;BME280;11014;53.076;18.208;2023-01-27T14:52:32;102184.47;;;6.37;61.91
21706;BME280;11014;53.076;18.208;2023-01-27T15:04:31;102186.97;;;6.31;61.01
21706;BME280;11014;53.076;18.208;2023-01-27T15:07:37;102199.31;;;6.32;61.01
21706;BME280;11014;53.076;18.208;2023-01-27T15:10:27;102193.97;;;6.32;60.97
21706;BME280;11014;53.076;18.208;2023-01-27T15:19:11;102200.63;;;6.12;59.96
21706;BME280;11014;53.076;18.208;2023-01-27T15:25:17;102200.91;;;6.01;59.92
21706;BME280;11014;53.076;18.208;2023-01-27T15:27:52;102200.41;;;5.97;59.74
21706;BME280;11014;53.076;18.208;2023-01-27T15:34:14;102208.13;;;5.82;59.03
21706;BME280;11014;53.076;18.208;2023-01-27T15:37:25;102211.47;;;5.76;59.05
21706;BME280;11014;53.076;18.208;2023-01-27T15:40:13;102212.13;;;5.78;59.25
21706;BME280;11014;53.076;18.208;2023-01-27T15:43:02;102222.59;;;5.72;58.97
21706;BME280;11014;53.076;18.208;2023-01-27T15:45:36;102216.25;;;5.65;59.36
21706;BME280;11014;53.076;18.208;2023-01-27T15:48:12;102225.22;;;5.64;58.95
21706;BME280;11014;53.076;18.208;2023-01-27T15:51:00;102217.00;;;5.49;58.76
21706;BME280;11014;53.076;18.208;2023-01-27T15:53:43;102232.25;;;5.39;58.50
21706;BME280;11014;53.076;18.208;2023-01-27T15:56:16;102227.66;;;5.23;58.88
21706;BME280;11014;53.076;18.208;2023-01-27T15:59:03;102234.22;;;5.11;59.11
21706;BME280;11014;53.076;18.208;2023-01-27T16:01:44;102237.97;;;5.01;59.27